Rechercher aéroport 
image banner adimage banner adimage banner ad
image banner ad

5CL7 - Gene Wash Reservoir

Situé à Parker Dam, United States

ICAO - 5CL7, IATA -

Données fournies par Airmate  

Information générale

Coordonnées: N34°18'31" W114°11'20"
Élévation : 850 feet MSL.
Variation magnétique : 13° East
Voir autres Aéroports à California

Données opérationnelles

Special qualification required
Heure actuelle UTC:
Heure actuelle locale:
Météo à : KHII - Lake Havasu City ( 33 km )
METAR: KHII 262255Z AUTO 20006KT 10SM CLR 37/15 A2985 RMK AO2
Voir NOTAMs / SUP AIP / TFR affectant cet aéroport [VIEW]
Fréquences de communication: [VIEW]

Pistes:

Identifiant RWYQFULongueur (ft)Largeur (ft)SurfaceLDA (ft)
11220030ASPH
29220030ASPH

Coordonnées de l'aéroport

Adresse: Parker Dam United States

Vue satellite de 5CL7